Time;durP1;ratioP1;P1;durP2;ratioP2;P2;SDS_P1;SDS_P2;PMS_P1;PMS_P2;Temp;Humidity;BMP_temperature;BMP_pressure;BME280_temperature;BME280_humidity;BME280_pressure;Samples;Min_cycle;Max_cycle;Signal;HPM_P1;HPM_P2
2022/08/10 00:00:20;;;;;;;0.77;0.47;;;;;;;;;;5028630;28;20103;-82
2022/08/10 00:03:08;;;;;;;1.63;0.70;;;;;;;;;;5016909;28;20045;-82
2022/08/10 00:05:55;;;;;;;0.88;0.47;;;;;;;;;;5030303;28;20045;-82
2022/08/10 00:08:41;;;;;;;1.65;0.60;;;;;;;;;;5028998;28;20442;-82
2022/08/10 00:11:27;;;;;;;1.38;0.70;;;;;;;;;;5017847;28;20499;-82
2022/08/10 00:14:12;;;;;;;2.90;0.60;;;;;;;;;;5028630;28;20029;-82
2022/08/10 00:16:58;;;;;;;1.58;0.80;;;;;;;;;;5029903;28;20054;-82
2022/08/10 00:19:44;;;;;;;3.17;1.10;;;;;;;;;;5031298;28;20467;-82
2022/08/10 00:22:29;;;;;;;1.80;0.80;;;;;;;;;;5032256;28;20474;-82
2022/08/10 00:25:15;;;;;;;1.63;0.70;;;;;;;;;;5034467;28;20416;-82
2022/08/10 00:28:01;;;;;;;1.13;0.65;;;;;;;;;;5020834;28;20488;-82
2022/08/10 00:30:46;;;;;;;0.93;0.43;;;;;;;;;;5034791;28;20042;-82
2022/08/10 00:33:32;;;;;;;1.48;0.60;;;;;;;;;;5033838;28;20048;-82
2022/08/10 00:36:18;;;;;;;1.40;0.60;;;;;;;;;;5034187;28;20573;-82
2022/08/10 00:39:04;;;;;;;1.38;0.77;;;;;;;;;;5021577;28;20042;-82
2022/08/10 00:41:49;;;;;;;1.83;0.60;;;;;;;;;;5032330;28;20515;-82
2022/08/10 00:44:42;;;;;;;1.00;0.47;;;;;;;;;;5034087;28;20049;-82
2022/08/10 00:47:28;;;;;;;1.88;0.77;;;;;;;;;;5035054;28;20042;-83
2022/08/10 00:50:16;;;;;;;2.35;0.65;;;;;;;;;;5033452;28;20053;-83
2022/08/10 00:53:02;;;;;;;1.40;0.70;;;;;;;;;;5032435;28;20041;-82
2022/08/10 00:55:48;;;;;;;1.17;0.55;;;;;;;;;;5032662;28;20075;-83
2022/08/10 00:58:34;;;;;;;1.98;0.70;;;;;;;;;;5033689;28;20060;-82
2022/08/10 01:01:19;;;;;;;1.27;0.63;;;;;;;;;;5031722;28;20053;-82
2022/08/10 01:04:06;;;;;;;2.15;0.90;;;;;;;;;;5019787;28;20060;-82
2022/08/10 01:07:12;;;;;;;1.67;0.60;;;;;;;;;;5032030;28;20135;-82
2022/08/10 01:10:22;;;;;;;1.52;0.70;;;;;;;;;;5033587;28;20046;-82
2022/08/10 01:13:20;;;;;;;1.90;0.60;;;;;;;;;;5032440;28;20060;-82
2022/08/10 01:16:10;;;;;;;1.77;0.82;;;;;;;;;;5032764;28;20041;-82
2022/08/10 01:19:18;;;;;;;2.80;0.98;;;;;;;;;;5034572;28;20082;-82
2022/08/10 01:22:11;;;;;;;2.47;0.63;;;;;;;;;;5033875;28;20113;-82
2022/08/10 01:25:06;;;;;;;3.03;0.82;;;;;;;;;;5034485;28;20120;-82
2022/08/10 01:28:07;;;;;;;2.30;0.85;;;;;;;;;;5032332;28;20033;-82
2022/08/10 01:30:53;;;;;;;2.30;0.88;;;;;;;;;;5034212;28;20427;-82
2022/08/10 01:33:46;;;;;;;1.38;0.73;;;;;;;;;;5033931;28;20403;-82
2022/08/10 01:36:37;;;;;;;1.65;0.80;;;;;;;;;;5031316;28;20049;-82
2022/08/10 01:39:27;;;;;;;3.17;1.05;;;;;;;;;;5006495;28;20083;-82
2022/08/10 01:42:14;;;;;;;1.38;0.50;;;;;;;;;;5032654;28;20136;-82
2022/08/10 01:45:02;;;;;;;1.30;0.75;;;;;;;;;;5034239;28;20060;-82
2022/08/10 01:50:52;;;;;;;1.15;0.68;;;;;;;;;;5021863;28;20481;-82
2022/08/10 01:53:41;;;;;;;1.40;0.70;;;;;;;;;;5033556;28;20043;-82
2022/08/10 01:56:32;;;;;;;2.22;0.85;;;;;;;;;;5031013;28;20603;-82
2022/08/10 01:59:20;;;;;;;1.60;0.60;;;;;;;;;;5031185;28;20041;-82
2022/08/10 02:02:10;;;;;;;1.33;0.70;;;;;;;;;;5018609;28;20507;-82
2022/08/10 02:04:56;;;;;;;2.55;0.80;;;;;;;;;;5019994;28;20053;-82
2022/08/10 02:07:42;;;;;;;0.90;0.50;;;;;;;;;;5032698;28;20041;-82
2022/08/10 02:10:27;;;;;;;1.83;0.65;;;;;;;;;;5030682;28;20061;-82
2022/08/10 02:13:14;;;;;;;0.98;0.73;;;;;;;;;;5032397;28;20029;-82
2022/08/10 02:15:59;;;;;;;1.52;0.75;;;;;;;;;;5020324;28;20405;-82
2022/08/10 02:18:45;;;;;;;3.75;0.80;;;;;;;;;;5032261;28;20045;-82
2022/08/10 02:21:31;;;;;;;2.05;0.77;;;;;;;;;;5032088;28;20052;-82
2022/08/10 02:24:17;;;;;;;2.00;1.00;;;;;;;;;;5032166;28;20095;-82
2022/08/10 02:27:04;;;;;;;2.00;0.65;;;;;;;;;;5032295;28;20095;-82
2022/08/10 02:29:52;;;;;;;1.42;0.70;;;;;;;;;;5019528;28;20478;-82
2022/08/10 02:32:37;;;;;;;1.52;0.60;;;;;;;;;;5018640;28;20408;-82
2022/08/10 02:35:23;;;;;;;2.25;1.00;;;;;;;;;;5030317;28;20455;-82
2022/08/10 02:38:09;;;;;;;1.50;0.80;;;;;;;;;;5030396;28;20511;-82
2022/08/10 02:40:56;;;;;;;1.90;0.70;;;;;;;;;;5029808;28;20057;-82
2022/08/10 02:43:47;;;;;;;1.58;0.98;;;;;;;;;;5019234;28;20041;-83
2022/08/10 02:46:45;;;;;;;1.08;0.60;;;;;;;;;;5031876;28;20064;-82
2022/08/10 02:49:39;;;;;;;1.98;0.70;;;;;;;;;;5017122;28;20053;-82
2022/08/10 02:52:29;;;;;;;1.77;0.95;;;;;;;;;;5031361;28;20436;-82
2022/08/10 02:55:21;;;;;;;1.67;0.80;;;;;;;;;;5031437;28;20067;-82
2022/08/10 02:58:09;;;;;;;;;;;;;;;;;;5030980;28;20087;-82
2022/08/10 03:00:55;;;;;;;1.85;0.75;;;;;;;;;;5031595;28;19956;-82
2022/08/10 03:03:48;;;;;;;1.67;0.60;;;;;;;;;;5029819;28;20540;-82
2022/08/10 03:06:37;;;;;;;3.13;0.80;;;;;;;;;;5030756;28;20033;-82
2022/08/10 03:09:23;;;;;;;1.80;0.75;;;;;;;;;;5019021;28;20069;-82
2022/08/10 03:12:10;;;;;;;2.72;1.10;;;;;;;;;;5017587;28;20053;-82
2022/08/10 03:14:55;;;;;;;1.65;1.10;;;;;;;;;;5032278;28;20033;-82
2022/08/10 03:17:41;;;;;;;2.15;1.15;;;;;;;;;;5029378;28;20053;-82
2022/08/10 03:20:32;;;;;;;0.77;0.47;;;;;;;;;;5017353;28;20087;-82
2022/08/10 03:23:19;;;;;;;2.08;0.90;;;;;;;;;;5016929;28;20040;-82
2022/08/10 03:26:05;;;;;;;1.80;0.60;;;;;;;;;;5030719;28;20470;-82
2022/08/10 03:28:51;;;;;;;1.30;0.75;;;;;;;;;;5029679;28;20120;-82
2022/08/10 03:31:37;;;;;;;1.35;0.70;;;;;;;;;;5029255;28;20084;-82
2022/08/10 03:34:22;;;;;;;1.75;0.70;;;;;;;;;;5031122;28;20037;-82
2022/08/10 03:37:08;;;;;;;1.27;0.73;;;;;;;;;;5017630;28;20083;-82
2022/08/10 03:39:54;;;;;;;1.38;0.68;;;;;;;;;;5018324;28;20052;-83
2022/08/10 03:42:39;;;;;;;1.45;0.60;;;;;;;;;;5016893;28;20037;-82
2022/08/10 03:45:25;;;;;;;1.10;0.60;;;;;;;;;;5030919;28;20042;-82
2022/08/10 03:48:11;;;;;;;1.52;0.70;;;;;;;;;;5030481;28;20042;-82
2022/08/10 03:50:57;;;;;;;1.95;0.90;;;;;;;;;;5030040;28;20045;-82
2022/08/10 03:53:42;;;;;;;3.10;0.93;;;;;;;;;;5016437;28;20037;-82
2022/08/10 03:56:29;;;;;;;1.50;0.75;;;;;;;;;;5029065;28;20052;-82
2022/08/10 03:59:15;;;;;;;1.80;0.90;;;;;;;;;;5028871;28;20068;-82
2022/08/10 04:02:00;;;;;;;1.60;0.82;;;;;;;;;;5028498;28;20037;-82
2022/08/10 04:04:46;;;;;;;2.25;1.00;;;;;;;;;;5016686;28;20038;-82
2022/08/10 04:07:33;;;;;;;3.10;0.85;;;;;;;;;;5028573;28;20546;-82
2022/08/10 04:10:19;;;;;;;3.58;0.90;;;;;;;;;;5018109;28;20128;-82
2022/08/10 04:13:04;;;;;;;1.42;0.90;;;;;;;;;;5030617;28;20482;-82
2022/08/10 04:15:50;;;;;;;3.17;1.10;;;;;;;;;;5029958;28;20527;-82
2022/08/10 04:18:36;;;;;;;2.55;0.90;;;;;;;;;;5031790;28;20042;-82
2022/08/10 04:21:30;;;;;;;2.05;0.80;;;;;;;;;;5029615;28;20037;-82
2022/08/10 04:24:18;;;;;;;2.60;0.75;;;;;;;;;;5018601;28;20060;-82
2022/08/10 04:27:04;;;;;;;2.83;1.08;;;;;;;;;;5029670;28;20477;-82
2022/08/10 04:29:54;;;;;;;1.83;0.95;;;;;;;;;;5030185;28;20419;-82
2022/08/10 04:32:39;;;;;;;2.25;1.00;;;;;;;;;;5018362;28;20057;-83
2022/08/10 04:35:25;;;;;;;1.42;0.77;;;;;;;;;;5028602;28;20049;-82
2022/08/10 04:38:11;;;;;;;2.42;1.27;;;;;;;;;;5031426;28;20396;-82
2022/08/10 04:40:57;;;;;;;1.27;0.70;;;;;;;;;;5028395;28;20516;-82
2022/08/10 04:43:43;;;;;;;2.78;1.00;;;;;;;;;;5016646;28;20045;-82
2022/08/10 04:46:28;;;;;;;2.67;1.08;;;;;;;;;;5030226;28;20042;-83
2022/08/10 04:49:14;;;;;;;2.80;1.38;;;;;;;;;;5028702;28;20044;-82
2022/08/10 04:52:00;;;;;;;2.83;0.80;;;;;;;;;;5028093;28;20104;-82
2022/08/10 04:54:45;;;;;;;3.38;1.30;;;;;;;;;;5016049;28;20037;-83
2022/08/10 04:57:31;;;;;;;1.80;1.00;;;;;;;;;;5016425;28;20041;-82
2022/08/10 05:00:17;;;;;;;1.88;1.00;;;;;;;;;;5016486;28;20048;-82
2022/08/10 05:03:03;;;;;;;3.28;1.00;;;;;;;;;;5029361;28;20124;-82
2022/08/10 05:05:48;;;;;;;2.08;0.80;;;;;;;;;;5016728;28;20041;-82
2022/08/10 05:08:34;;;;;;;1.83;1.00;;;;;;;;;;5007236;28;20507;-82
2022/08/10 05:11:20;;;;;;;2.50;1.00;;;;;;;;;;5007296;28;20049;-82
2022/08/10 05:14:05;;;;;;;1.60;0.95;;;;;;;;;;5033025;28;20037;-82
2022/08/10 05:16:51;;;;;;;2.22;1.27;;;;;;;;;;5019702;28;20053;-82
2022/08/10 05:19:37;;;;;;;2.50;0.85;;;;;;;;;;5033545;28;20037;-82
2022/08/10 05:22:23;;;;;;;2.55;1.00;;;;;;;;;;5031298;28;20049;-82
2022/08/10 05:25:13;;;;;;;2.13;0.82;;;;;;;;;;5017603;28;20040;-81
2022/08/10 05:27:59;;;;;;;2.00;0.77;;;;;;;;;;5031732;28;20075;-82
2022/08/10 05:30:45;;;;;;;1.92;1.00;;;;;;;;;;5031550;28;20038;-82
2022/08/10 05:33:30;;;;;;;1.88;0.77;;;;;;;;;;5031364;28;20046;-81
2022/08/10 05:36:16;;;;;;;3.20;1.27;;;;;;;;;;5031552;28;20479;-81
2022/08/10 05:39:02;;;;;;;2.08;1.08;;;;;;;;;;5031134;28;20056;-82
2022/08/10 05:41:50;;;;;;;2.72;1.02;;;;;;;;;;5020625;28;20045;-82
2022/08/10 05:44:36;;;;;;;2.05;1.10;;;;;;;;;;5020316;28;20052;-82
2022/08/10 05:47:22;;;;;;;1.88;1.08;;;;;;;;;;5019805;28;20408;-82
2022/08/10 05:50:08;;;;;;;4.90;1.30;;;;;;;;;;5034166;28;20041;-81
2022/08/10 05:52:53;;;;;;;3.25;1.00;;;;;;;;;;5032289;28;20038;-82
2022/08/10 05:55:39;;;;;;;3.72;1.10;;;;;;;;;;5018010;28;20033;-82
2022/08/10 05:58:25;;;;;;;1.58;0.75;;;;;;;;;;5020234;28;20037;-82
2022/08/10 06:01:12;;;;;;;2.17;1.00;;;;;;;;;;5018828;28;20091;-83
2022/08/10 06:03:57;;;;;;;4.10;1.13;;;;;;;;;;5018928;28;20483;-82
2022/08/10 06:06:44;;;;;;;2.67;0.95;;;;;;;;;;5018383;28;20041;-82
2022/08/10 06:09:30;;;;;;;1.52;0.93;;;;;;;;;;5030464;28;20053;-82
2022/08/10 06:12:15;;;;;;;1.52;0.95;;;;;;;;;;5032614;28;20503;-82
2022/08/10 06:15:01;;;;;;;1.60;0.77;;;;;;;;;;5030773;28;20048;-82
2022/08/10 06:17:47;;;;;;;2.78;1.20;;;;;;;;;;5031270;28;20124;-82
2022/08/10 06:20:33;;;;;;;2.15;1.02;;;;;;;;;;5019504;28;20466;-82
2022/08/10 06:23:18;;;;;;;4.10;1.08;;;;;;;;;;5031646;28;20099;-82
2022/08/10 06:26:05;;;;;;;3.20;1.10;;;;;;;;;;5030478;28;20041;-82
2022/08/10 06:28:58;;;;;;;2.83;1.00;;;;;;;;;;5032250;28;20392;-82
2022/08/10 06:31:47;;;;;;;2.67;1.27;;;;;;;;;;5030436;28;20484;-82
2022/08/10 06:34:36;;;;;;;3.33;1.10;;;;;;;;;;5016904;28;20091;-83
2022/08/10 06:37:25;;;;;;;2.85;0.90;;;;;;;;;;5030983;28;20095;-82
2022/08/10 06:40:11;;;;;;;3.35;1.05;;;;;;;;;;5018171;28;20515;-82
2022/08/10 06:42:57;;;;;;;2.78;1.27;;;;;;;;;;5017023;28;20056;-82
2022/08/10 06:46:07;;;;;;;2.20;1.25;;;;;;;;;;5030028;28;20034;-82
2022/08/10 06:48:54;;;;;;;2.13;0.90;;;;;;;;;;5007657;28;20037;-82
2022/08/10 06:51:46;;;;;;;2.53;1.00;;;;;;;;;;5029297;28;20037;-82
2022/08/10 06:54:32;;;;;;;2.95;0.85;;;;;;;;;;5017200;28;20041;-82
2022/08/10 06:57:17;;;;;;;2.35;0.98;;;;;;;;;;5017847;28;20037;-82
2022/08/10 07:00:04;;;;;;;2.35;1.33;;;;;;;;;;5030069;28;20052;-82
2022/08/10 07:02:53;;;;;;;2.55;0.90;;;;;;;;;;5018983;28;20034;-82
2022/08/10 07:05:47;;;;;;;4.03;1.17;;;;;;;;;;5017285;28;20091;-82
2022/08/10 07:08:33;;;;;;;2.67;1.00;;;;;;;;;;5032072;28;20073;-83
2022/08/10 07:11:18;;;;;;;6.30;1.63;;;;;;;;;;5017529;28;20045;-82
2022/08/10 07:14:04;;;;;;;2.90;1.10;;;;;;;;;;5017555;28;20393;-82
2022/08/10 07:16:50;;;;;;;1.98;0.90;;;;;;;;;;5017628;28;20081;-82
2022/08/10 07:19:35;;;;;;;3.83;1.40;;;;;;;;;;5030486;28;20037;-82
2022/08/10 07:22:26;;;;;;;1.65;0.98;;;;;;;;;;5031790;28;20423;-82
2022/08/10 07:25:14;;;;;;;4.93;1.17;;;;;;;;;;5015889;28;20063;-82
2022/08/10 07:28:00;;;;;;;2.13;1.13;;;;;;;;;;5017913;28;20523;-82
2022/08/10 07:30:46;;;;;;;1.10;0.77;;;;;;;;;;5030905;28;20053;-82
2022/08/10 07:33:31;;;;;;;2.55;1.27;;;;;;;;;;5030846;28;20044;-83
2022/08/10 07:36:18;;;;;;;2.28;0.93;;;;;;;;;;5018098;28;20041;-82
2022/08/10 07:39:04;;;;;;;2.88;1.10;;;;;;;;;;5016564;28;20045;-82
2022/08/10 07:41:50;;;;;;;4.60;1.40;;;;;;;;;;5017096;28;20049;-82
2022/08/10 07:44:36;;;;;;;4.05;1.40;;;;;;;;;;5029529;28;20037;-82
2022/08/10 07:47:27;;;;;;;4.00;1.40;;;;;;;;;;5028899;28;20037;-82
2022/08/10 07:50:15;;;;;;;5.43;1.33;;;;;;;;;;5031076;28;20095;-83
2022/08/10 07:53:01;;;;;;;2.35;1.23;;;;;;;;;;5029096;28;20049;-83
2022/08/10 07:55:47;;;;;;;2.03;0.93;;;;;;;;;;5004626;28;20140;-82
2022/08/10 07:58:39;;;;;;;2.78;0.90;;;;;;;;;;5028790;28;20479;-82
2022/08/10 08:01:26;;;;;;;;;;;;;;;;;;5016324;28;20048;-83
2022/08/10 08:04:12;;;;;;;3.30;1.25;;;;;;;;;;5031301;28;19909;-82
2022/08/10 08:06:59;;;;;;;1.83;0.95;;;;;;;;;;5030515;28;20044;-82
2022/08/10 08:09:44;;;;;;;3.38;1.52;;;;;;;;;;5029950;28;20045;-82
2022/08/10 08:12:31;;;;;;;2.40;1.55;;;;;;;;;;5015819;28;20041;-82
2022/08/10 08:15:18;;;;;;;4.32;1.23;;;;;;;;;;5017417;28;20049;-82
2022/08/10 08:18:04;;;;;;;2.78;0.80;;;;;;;;;;5028383;28;20127;-82
2022/08/10 08:20:50;;;;;;;2.33;1.02;;;;;;;;;;5030839;28;20103;-82
2022/08/10 08:23:36;;;;;;;2.72;1.10;;;;;;;;;;5030169;28;20041;-82
2022/08/10 08:26:22;;;;;;;2.88;1.42;;;;;;;;;;5028630;28;20416;-82
2022/08/10 08:29:09;;;;;;;3.58;1.33;;;;;;;;;;5029673;28;20083;-82
2022/08/10 08:31:54;;;;;;;1.60;0.80;;;;;;;;;;5029667;28;20427;-82
2022/08/10 08:34:41;;;;;;;3.53;1.30;;;;;;;;;;5015301;28;20073;-82
2022/08/10 08:37:28;;;;;;;4.28;1.52;;;;;;;;;;5014665;28;20048;-82
2022/08/10 08:40:26;;;;;;;2.55;1.10;;;;;;;;;;5019236;28;20472;-82
2022/08/10 08:43:42;;;;;;;1.90;0.98;;;;;;;;;;5019360;28;20041;-82
2022/08/10 08:46:43;;;;;;;2.58;0.88;;;;;;;;;;5033413;28;20061;-82
2022/08/10 08:49:46;;;;;;;3.35;1.13;;;;;;;;;;5035108;28;20041;-82
2022/08/10 08:52:51;;;;;;;1.90;1.05;;;;;;;;;;5033325;28;20484;-82
2022/08/10 08:55:45;;;;;;;2.60;1.17;;;;;;;;;;5032108;28;20056;-82
2022/08/10 08:58:33;;;;;;;3.40;0.95;;;;;;;;;;5007431;28;20047;-82
2022/08/10 09:01:40;;;;;;;3.30;1.35;;;;;;;;;;5032896;28;20538;-82
2022/08/10 09:04:33;;;;;;;2.00;1.00;;;;;;;;;;5032992;28;20048;-83
2022/08/10 09:07:21;;;;;;;1.98;1.02;;;;;;;;;;5020757;28;20041;-82
2022/08/10 09:10:32;;;;;;;1.33;1.02;;;;;;;;;;5032506;28;20041;-82
2022/08/10 09:13:37;;;;;;;2.35;0.98;;;;;;;;;;5034678;28;20044;-82
2022/08/10 09:16:38;;;;;;;3.75;1.40;;;;;;;;;;5032781;28;20419;-82
2022/08/10 09:19:32;;;;;;;2.25;1.20;;;;;;;;;;5032271;28;20405;-83
2022/08/10 09:22:33;;;;;;;2.17;0.90;;;;;;;;;;5020993;28;20098;-83
2022/08/10 09:25:23;;;;;;;2.03;0.75;;;;;;;;;;5019223;28;20045;-83
2022/08/10 09:28:12;;;;;;;2.35;1.40;;;;;;;;;;5031565;28;20038;-82
2022/08/10 09:31:03;;;;;;;3.05;1.02;;;;;;;;;;5020657;28;20045;-83
2022/08/10 09:33:58;;;;;;;3.92;1.40;;;;;;;;;;5031884;28;20500;-82
2022/08/10 09:36:53;;;;;;;2.95;0.93;;;;;;;;;;5034274;28;20064;-82
2022/08/10 09:39:41;;;;;;;2.28;0.88;;;;;;;;;;5033641;28;20511;-83
2022/08/10 09:42:58;;;;;;;2.42;0.98;;;;;;;;;;5019340;28;20042;-82
2022/08/10 09:45:52;;;;;;;2.58;0.77;;;;;;;;;;5033644;28;20041;-83
2022/08/10 09:48:57;;;;;;;1.70;0.77;;;;;;;;;;5031241;28;20037;-82
2022/08/10 09:51:48;;;;;;;1.67;0.70;;;;;;;;;;5033556;28;20423;-83
2022/08/10 09:54:55;;;;;;;1.88;1.02;;;;;;;;;;5031561;28;20167;-83
2022/08/10 09:57:45;;;;;;;2.58;1.15;;;;;;;;;;5031409;28;20470;-83
2022/08/10 10:00:38;;;;;;;2.50;1.17;;;;;;;;;;5018794;28;20083;-83
2022/08/10 10:04:06;;;;;;;2.15;0.80;;;;;;;;;;5031786;28;20037;-84
2022/08/10 10:06:57;;;;;;;2.50;1.15;;;;;;;;;;5017129;28;20063;-82
2022/08/10 10:09:48;;;;;;;2.45;0.80;;;;;;;;;;5032914;28;20495;-83
2022/08/10 10:12:49;;;;;;;1.85;0.75;;;;;;;;;;5032012;28;20041;-84
2022/08/10 10:15:52;;;;;;;1.58;0.95;;;;;;;;;;5031488;28;20041;-84
2022/08/10 10:18:52;;;;;;;1.95;0.90;;;;;;;;;;5031750;28;20091;-85
2022/08/10 10:21:44;;;;;;;2.53;1.20;;;;;;;;;;5017519;28;20037;-84
2022/08/10 10:24:50;;;;;;;1.77;0.95;;;;;;;;;;5017833;28;20412;-83
2022/08/10 10:27:52;;;;;;;1.63;0.90;;;;;;;;;;5032521;28;20045;-83
2022/08/10 10:30:51;;;;;;;1.25;0.60;;;;;;;;;;5031480;28;20041;-83
2022/08/10 10:34:00;;;;;;;1.42;0.85;;;;;;;;;;5018044;28;20089;-84
2022/08/10 10:36:45;;;;;;;1.35;0.73;;;;;;;;;;5031545;28;20500;-83
2022/08/10 10:39:31;;;;;;;1.50;0.68;;;;;;;;;;5031670;28;20420;-83
2022/08/10 10:42:55;;;;;;;2.28;0.88;;;;;;;;;;5016911;28;20519;-83
2022/08/10 10:45:56;;;;;;;0.88;0.50;;;;;;;;;;5032794;28;20489;-82
2022/08/10 10:49:02;;;;;;;1.65;0.55;;;;;;;;;;5016989;28;20136;-83
2022/08/10 10:52:06;;;;;;;1.80;0.80;;;;;;;;;;5030697;28;20483;-84
2022/08/10 10:55:16;;;;;;;2.38;1.10;;;;;;;;;;5030767;28;20527;-83
2022/08/10 10:58:14;;;;;;;1.52;0.77;;;;;;;;;;5018980;28;20053;-82
2022/08/10 11:01:09;;;;;;;1.35;0.80;;;;;;;;;;5030613;28;20041;-83
2022/08/10 11:04:13;;;;;;;3.03;0.77;;;;;;;;;;5029941;28;20044;-84
2022/08/10 11:07:14;;;;;;;1.10;0.68;;;;;;;;;;5031496;28;20072;-83
2022/08/10 11:10:06;;;;;;;1.05;0.57;;;;;;;;;;5030861;28;20488;-83
2022/08/10 11:12:56;;;;;;;2.13;1.27;;;;;;;;;;5031150;28;20041;-83
2022/08/10 11:15:47;;;;;;;2.05;0.80;;;;;;;;;;5029514;28;20048;-83
2022/08/10 11:19:02;;;;;;;1.55;0.80;;;;;;;;;;5030271;28;20561;-83
2022/08/10 11:22:09;;;;;;;3.22;1.40;;;;;;;;;;5029945;28;20042;-83
2022/08/10 11:25:24;;;;;;;2.03;1.00;;;;;;;;;;5018476;28;20060;-83
2022/08/10 11:28:25;;;;;;;1.38;0.60;;;;;;;;;;5018445;28;20041;-82
2022/08/10 11:31:32;;;;;;;1.67;1.05;;;;;;;;;;5018775;28;20042;-83
2022/08/10 11:34:41;;;;;;;1.48;0.50;;;;;;;;;;5018562;28;20049;-83
2022/08/10 11:37:37;;;;;;;2.08;0.70;;;;;;;;;;5031103;28;20038;-84
2022/08/10 11:40:27;;;;;;;2.92;0.70;;;;;;;;;;5030073;28;20081;-83
2022/08/10 11:43:19;;;;;;;1.45;0.55;;;;;;;;;;5032015;28;20037;-83
2022/08/10 11:46:17;;;;;;;2.10;1.00;;;;;;;;;;5017593;28;20514;-82
2022/08/10 11:49:09;;;;;;;1.48;0.60;;;;;;;;;;5017168;28;20069;-82
2022/08/10 11:51:57;;;;;;;1.95;0.90;;;;;;;;;;5015839;28;20052;-83
2022/08/10 11:54:49;;;;;;;7.63;0.80;;;;;;;;;;5029817;28;20091;-83
2022/08/10 11:57:34;;;;;;;;;;;;;;;;;;5005243;28;20077;-82
2022/08/10 12:00:20;;;;;;;1.35;0.63;;;;;;;;;;5017605;28;19920;-83
2022/08/10 12:03:06;;;;;;;1.35;0.70;;;;;;;;;;5029985;28;20408;-82
2022/08/10 12:05:52;;;;;;;1.98;0.80;;;;;;;;;;5028892;28;20516;-83
2022/08/10 12:08:39;;;;;;;1.33;0.63;;;;;;;;;;5030352;28;20454;-82
2022/08/10 12:11:27;;;;;;;1.77;0.70;;;;;;;;;;5028445;28;20041;-83
2022/08/10 12:14:18;;;;;;;1.15;0.45;;;;;;;;;;5015858;28;20033;-82
2022/08/10 12:17:31;;;;;;;2.15;0.98;;;;;;;;;;5033572;28;20140;-82
2022/08/10 12:20:36;;;;;;;1.48;0.70;;;;;;;;;;5034146;28;20077;-83
2022/08/10 12:23:32;;;;;;;1.08;0.60;;;;;;;;;;5019247;28;20048;-83
2022/08/10 12:26:22;;;;;;;1.77;0.60;;;;;;;;;;5033150;28;20060;-83
2022/08/10 12:29:20;;;;;;;2.05;0.98;;;;;;;;;;5020518;28;20092;-83
2022/08/10 12:32:25;;;;;;;1.38;0.70;;;;;;;;;;5033254;28;20120;-83
2022/08/10 12:35:51;;;;;;;1.08;0.63;;;;;;;;;;5033286;28;20041;-82
2022/08/10 12:39:16;;;;;;;1.02;0.60;;;;;;;;;;5022931;28;20068;-82
2022/08/10 12:42:09;;;;;;;2.20;1.10;;;;;;;;;;5013919;28;20060;-82
2022/08/10 12:45:02;;;;;;;1.52;0.50;;;;;;;;;;5033642;28;20069;-82
2022/08/10 12:48:17;;;;;;;1.90;1.00;;;;;;;;;;5035381;28;20056;-82
2022/08/10 12:51:23;;;;;;;1.15;0.80;;;;;;;;;;5022166;28;20041;-83
2022/08/10 12:54:12;;;;;;;1.45;0.80;;;;;;;;;;5033104;28;20408;-82
2022/08/10 12:57:06;;;;;;;1.15;0.55;;;;;;;;;;5021578;28;20128;-82
2022/08/10 12:59:55;;;;;;;1.60;0.80;;;;;;;;;;5019963;28;20042;-82
2022/08/10 13:02:43;;;;;;;1.15;0.50;;;;;;;;;;5020026;28;20546;-82
2022/08/10 13:05:29;;;;;;;1.13;0.63;;;;;;;;;;5031991;28;20075;-82
2022/08/10 13:11:21;;;;;;;1.40;0.50;;;;;;;;;;5033793;28;20049;-83
2022/08/10 13:14:10;;;;;;;1.45;0.70;;;;;;;;;;5032153;28;20088;-83
2022/08/10 13:16:56;;;;;;;1.10;0.50;;;;;;;;;;5031696;28;20052;-83
2022/08/10 13:19:43;;;;;;;1.85;0.70;;;;;;;;;;5033584;28;20048;-82
2022/08/10 13:22:29;;;;;;;1.13;0.50;;;;;;;;;;5031006;28;20045;-83
2022/08/10 13:25:19;;;;;;;1.33;0.50;;;;;;;;;;5032454;28;20037;-83
2022/08/10 13:28:08;;;;;;;0.70;0.40;;;;;;;;;;5031761;28;20052;-83
2022/08/10 13:30:54;;;;;;;2.00;0.88;;;;;;;;;;5007404;28;20030;-84
2022/08/10 13:33:45;;;;;;;1.58;0.80;;;;;;;;;;5019376;28;20034;-82
2022/08/10 13:36:35;;;;;;;1.33;0.50;;;;;;;;;;5006955;28;20092;-83
2022/08/10 13:39:33;;;;;;;1.23;0.70;;;;;;;;;;5019581;28;20809;-83
2022/08/10 13:42:19;;;;;;;1.42;0.65;;;;;;;;;;5031434;28;20044;-83
2022/08/10 13:45:16;;;;;;;0.90;0.60;;;;;;;;;;5031541;28;20523;-83
2022/08/10 13:48:13;;;;;;;1.33;0.52;;;;;;;;;;5007034;28;20041;-83
2022/08/10 13:50:58;;;;;;;1.13;0.60;;;;;;;;;;5031368;28;20044;-83
2022/08/10 13:53:44;;;;;;;1.38;0.50;;;;;;;;;;5006505;28;20468;-83
2022/08/10 13:56:30;;;;;;;1.40;0.65;;;;;;;;;;5020232;28;20034;-83
2022/08/10 13:59:16;;;;;;;1.30;0.47;;;;;;;;;;5019088;28;20034;-83
2022/08/10 14:02:01;;;;;;;0.82;0.50;;;;;;;;;;5032789;28;20427;-83
2022/08/10 14:04:47;;;;;;;1.00;0.63;;;;;;;;;;5018559;28;20059;-84
2022/08/10 14:07:33;;;;;;;1.48;0.60;;;;;;;;;;5018685;28;20042;-83
2022/08/10 14:10:19;;;;;;;1.02;0.50;;;;;;;;;;5018853;28;20467;-82
2022/08/10 14:13:05;;;;;;;1.15;0.60;;;;;;;;;;5018766;28;20420;-82
2022/08/10 14:15:51;;;;;;;0.93;0.50;;;;;;;;;;5018097;28;20038;-82
2022/08/10 14:18:37;;;;;;;1.40;0.57;;;;;;;;;;5033500;28;20456;-82
2022/08/10 14:21:23;;;;;;;1.13;0.60;;;;;;;;;;5005973;28;20379;-82
2022/08/10 14:24:18;;;;;;;1.15;0.73;;;;;;;;;;5030904;28;20503;-83
2022/08/10 14:27:11;;;;;;;0.85;0.40;;;;;;;;;;5006124;28;20527;-83
2022/08/10 14:29:56;;;;;;;0.65;0.50;;;;;;;;;;5017772;28;20484;-82
2022/08/10 14:32:47;;;;;;;1.42;0.82;;;;;;;;;;5017064;28;20416;-83
2022/08/10 14:35:34;;;;;;;0.73;0.50;;;;;;;;;;5031152;28;20088;-83
2022/08/10 14:38:23;;;;;;;0.98;0.43;;;;;;;;;;5017479;28;20064;-83
2022/08/10 14:41:14;;;;;;;0.90;0.50;;;;;;;;;;5031371;28;20045;-83
2022/08/10 14:44:05;;;;;;;1.35;0.77;;;;;;;;;;5033133;28;20132;-82
2022/08/10 14:46:53;;;;;;;1.08;0.65;;;;;;;;;;5031906;28;20103;-83
2022/08/10 14:49:38;;;;;;;1.10;0.60;;;;;;;;;;5031675;28;20045;-83
2022/08/10 14:52:24;;;;;;;1.27;0.55;;;;;;;;;;5017669;28;20073;-83
2022/08/10 14:55:10;;;;;;;1.65;0.55;;;;;;;;;;5029994;28;20079;-82
2022/08/10 14:57:56;;;;;;;1.60;0.82;;;;;;;;;;5019294;28;20542;-83
2022/08/10 15:00:41;;;;;;;0.90;0.50;;;;;;;;;;5017639;28;20128;-82
2022/08/10 15:03:29;;;;;;;1.30;0.70;;;;;;;;;;5018854;28;20079;-83
2022/08/10 15:06:15;;;;;;;1.50;0.70;;;;;;;;;;5031434;28;20038;-83
2022/08/10 15:09:06;;;;;;;1.20;0.70;;;;;;;;;;5016809;28;20045;-82
2022/08/10 15:11:53;;;;;;;1.15;0.80;;;;;;;;;;5030373;28;20042;-82
2022/08/10 15:14:44;;;;;;;1.05;0.50;;;;;;;;;;5030786;28;20068;-82
2022/08/10 15:17:31;;;;;;;1.77;0.68;;;;;;;;;;5032331;28;20049;-83
2022/08/10 15:20:25;;;;;;;1.70;0.75;;;;;;;;;;5017345;28;20045;-82
2022/08/10 15:23:12;;;;;;;1.65;0.80;;;;;;;;;;5030751;28;20479;-83
2022/08/10 15:25:59;;;;;;;1.80;0.63;;;;;;;;;;5032334;28;20107;-82
2022/08/10 15:28:46;;;;;;;1.30;0.75;;;;;;;;;;5017480;28;20470;-82
2022/08/10 15:31:33;;;;;;;2.20;0.70;;;;;;;;;;5029220;28;20131;-82
2022/08/10 15:37:24;;;;;;;1.20;0.57;;;;;;;;;;5030809;28;20037;-83
2022/08/10 15:40:14;;;;;;;1.83;0.80;;;;;;;;;;5032035;28;20099;-83
2022/08/10 15:43:15;;;;;;;2.05;0.65;;;;;;;;;;5029410;28;20045;-84
2022/08/10 15:46:16;;;;;;;1.35;0.82;;;;;;;;;;5029751;28;20037;-83
2022/08/10 15:49:24;;;;;;;1.38;0.75;;;;;;;;;;5019147;28;20037;-83
2022/08/10 15:52:20;;;;;;;1.77;1.02;;;;;;;;;;5020202;28;20120;-83
2022/08/10 15:55:08;;;;;;;1.40;0.80;;;;;;;;;;5004853;28;20042;-83
2022/08/10 15:58:13;;;;;;;1.13;0.70;;;;;;;;;;5017121;28;20084;-82
2022/08/10 16:01:01;;;;;;;2.40;0.90;;;;;;;;;;5018103;28;20145;-82
2022/08/10 16:03:50;;;;;;;2.85;1.52;;;;;;;;;;5016862;28;20037;-82
2022/08/10 16:06:56;;;;;;;3.17;1.90;;;;;;;;;;5029866;28;20041;-82
2022/08/10 16:09:51;;;;;;;2.25;1.10;;;;;;;;;;5028848;28;20042;-81
2022/08/10 16:12:52;;;;;;;3.35;1.58;;;;;;;;;;5016342;28;20124;-81
2022/08/10 16:15:37;;;;;;;3.25;1.63;;;;;;;;;;5028535;28;20037;-81
2022/08/10 16:18:27;;;;;;;3.90;1.77;;;;;;;;;;5028898;28;20534;-81
2022/08/10 16:21:21;;;;;;;2.67;1.45;;;;;;;;;;5016583;28;20455;-82
2022/08/10 16:24:08;;;;;;;2.92;1.50;;;;;;;;;;5029534;28;20045;-82
2022/08/10 16:26:54;;;;;;;3.90;1.80;;;;;;;;;;5029740;28;20454;-82
2022/08/10 16:29:40;;;;;;;3.85;1.88;;;;;;;;;;5004066;28;20069;-82
2022/08/10 16:32:26;;;;;;;4.38;1.50;;;;;;;;;;5030625;28;20034;-83
2022/08/10 16:35:12;;;;;;;3.20;1.42;;;;;;;;;;5028050;28;20037;-82
2022/08/10 16:37:58;;;;;;;2.10;1.10;;;;;;;;;;5029164;28;20037;-82
2022/08/10 16:40:43;;;;;;;2.65;1.50;;;;;;;;;;5028113;28;20400;-82
2022/08/10 16:43:29;;;;;;;3.13;1.83;;;;;;;;;;5029804;28;20060;-82
2022/08/10 16:46:15;;;;;;;1.85;1.15;;;;;;;;;;5029656;28;20030;-82
2022/08/10 16:49:01;;;;;;;2.42;1.60;;;;;;;;;;5029610;28;20095;-82
2022/08/10 16:51:47;;;;;;;3.25;1.30;;;;;;;;;;5027731;28;20049;-83
2022/08/10 16:54:32;;;;;;;2.20;1.20;;;;;;;;;;5029698;28;20100;-82
2022/08/10 16:57:18;;;;;;;2.17;1.45;;;;;;;;;;5015425;28;20487;-83
2022/08/10 17:00:07;;;;;;;3.75;1.58;;;;;;;;;;5015076;28;20127;-82
2022/08/10 17:03:07;;;;;;;3.38;1.65;;;;;;;;;;5033272;28;20128;-82
2022/08/10 17:05:56;;;;;;;4.10;1.50;;;;;;;;;;5034825;28;20038;-82
2022/08/10 17:08:42;;;;;;;2.67;1.60;;;;;;;;;;5019089;28;20118;-82
2022/08/10 17:11:31;;;;;;;1.52;1.08;;;;;;;;;;5007451;28;20051;-82